Bangui, Central African Republic
Current Conditions -  °F | °C
As of 12:00 AM on Thursday 23 Oct 2014 (Local Time) from FEFF Reporting Station
Thunderstorm Thunderstorm  
Wind Chill: 24°   Ceiling: 15000
Heat Index: 24°   Visibility: 5mi
Dew Point: 23°   Wind: 0mph
Humidity: 94%   Direction: NA
Pressure: 29.91"   Gusts: NA
Location:  4.36°N, 18.56°E
Report Text: FEFF 222300Z 00000KT 8000 TS FEW016 FEW040CB BKN150 24/23 Q1013 BECMG NSW
Loading
Personal Weather Stations






























Interactive Weather Map
Tropical Storm Tracking
New forecast layout! Learn more

10-Day Weather Forecast

Advertisements
Track Severe Weather on mobile